sensor_id;sensor_type;location;lat;lon;timestamp;temperature;humidity
22974;DHT22;11653;50.848;4.584;2022-12-29T00:02:11;12.90;99.90
22974;DHT22;11653;50.848;4.584;2022-12-29T00:04:37;12.80;99.90
22974;DHT22;11653;50.848;4.584;2022-12-29T00:07:02;12.80;99.90
22974;DHT22;11653;50.848;4.584;2022-12-29T00:09:30;12.80;99.90
22974;DHT22;11653;50.848;4.584;2022-12-29T00:11:57;12.80;99.90
22974;DHT22;11653;50.848;4.584;2022-12-29T00:14:23;12.80;99.90
22974;DHT22;11653;50.848;4.584;2022-12-29T00:17:07;12.80;99.90
22974;DHT22;11653;50.848;4.584;2022-12-29T00:19:33;12.80;99.90
22974;DHT22;11653;50.848;4.584;2022-12-29T00:22:17;12.70;99.90
22974;DHT22;11653;50.848;4.584;2022-12-29T00:25:02;12.80;99.90
22974;DHT22;11653;50.848;4.584;2022-12-29T00:27:46;12.80;99.90
22974;DHT22;11653;50.848;4.584;2022-12-29T00:30:30;12.80;99.90
22974;DHT22;11653;50.848;4.584;2022-12-29T00:33:20;12.80;99.90
22974;DHT22;11653;50.848;4.584;2022-12-29T00:36:06;12.80;99.90
22974;DHT22;11653;50.848;4.584;2022-12-29T00:38:36;12.70;99.90
22974;DHT22;11653;50.848;4.584;2022-12-29T00:41:20;12.80;99.90
22974;DHT22;11653;50.848;4.584;2022-12-29T00:44:05;12.90;99.90
22974;DHT22;11653;50.848;4.584;2022-12-29T00:46:36;13.00;99.90
22974;DHT22;11653;50.848;4.584;2022-12-29T00:49:02;13.00;99.90
22974;DHT22;11653;50.848;4.584;2022-12-29T00:51:48;13.00;99.90
22974;DHT22;11653;50.848;4.584;2022-12-29T00:54:14;12.90;99.90
22974;DHT22;11653;50.848;4.584;2022-12-29T00:56:40;13.00;99.90
22974;DHT22;11653;50.848;4.584;2022-12-29T00:59:09;12.90;99.90
22974;DHT22;11653;50.848;4.584;2022-12-29T01:01:36;12.90;99.90
22974;DHT22;11653;50.848;4.584;2022-12-29T01:04:03;12.90;99.90
22974;DHT22;11653;50.848;4.584;2022-12-29T01:06:29;12.80;99.90
22974;DHT22;11653;50.848;4.584;2022-12-29T01:08:54;12.80;99.90
22974;DHT22;11653;50.848;4.584;2022-12-29T01:11:43;12.90;99.90
22974;DHT22;11653;50.848;4.584;2022-12-29T01:14:08;12.90;99.90
22974;DHT22;11653;50.848;4.584;2022-12-29T01:16:34;12.90;99.90
22974;DHT22;11653;50.848;4.584;2022-12-29T01:19:02;12.90;99.90
22974;DHT22;11653;50.848;4.584;2022-12-29T01:21:27;12.90;99.90
22974;DHT22;11653;50.848;4.584;2022-12-29T01:23:53;12.90;99.90
22974;DHT22;11653;50.848;4.584;2022-12-29T01:26:19;12.80;99.90
22974;DHT22;11653;50.848;4.584;2022-12-29T01:28:45;12.90;99.90
22974;DHT22;11653;50.848;4.584;2022-12-29T01:31:13;12.90;99.90
22974;DHT22;11653;50.848;4.584;2022-12-29T01:33:39;12.80;99.90
22974;DHT22;11653;50.848;4.584;2022-12-29T01:36:07;12.80;99.90
22974;DHT22;11653;50.848;4.584;2022-12-29T01:38:35;12.70;99.90
22974;DHT22;11653;50.848;4.584;2022-12-29T01:41:01;12.60;99.90
22974;DHT22;11653;50.848;4.584;2022-12-29T01:48:51;12.60;99.90
22974;DHT22;11653;50.848;4.584;2022-12-29T01:51:18;12.60;99.90
22974;DHT22;11653;50.848;4.584;2022-12-29T01:53:45;12.60;99.90
22974;DHT22;11653;50.848;4.584;2022-12-29T01:56:12;12.60;99.90
22974;DHT22;11653;50.848;4.584;2022-12-29T01:58:45;12.60;99.90
22974;DHT22;11653;50.848;4.584;2022-12-29T02:01:13;12.50;99.90
22974;DHT22;11653;50.848;4.584;2022-12-29T02:03:39;12.40;99.90
22974;DHT22;11653;50.848;4.584;2022-12-29T02:06:12;12.10;99.90
22974;DHT22;11653;50.848;4.584;2022-12-29T02:08:41;12.00;99.90
22974;DHT22;11653;50.848;4.584;2022-12-29T02:11:07;11.90;99.90
22974;DHT22;11653;50.848;4.584;2022-12-29T02:13:33;11.80;99.90
22974;DHT22;11653;50.848;4.584;2022-12-29T02:21:56;11.70;99.90
22974;DHT22;11653;50.848;4.584;2022-12-29T02:27:16;11.60;99.90
22974;DHT22;11653;50.848;4.584;2022-12-29T02:30:06;11.60;99.90
22974;DHT22;11653;50.848;4.584;2022-12-29T02:32:45;11.50;99.90
22974;DHT22;11653;50.848;4.584;2022-12-29T02:35:30;11.60;99.90
22974;DHT22;11653;50.848;4.584;2022-12-29T02:38:17;11.60;99.90
22974;DHT22;11653;50.848;4.584;2022-12-29T02:40:55;11.70;99.90
22974;DHT22;11653;50.848;4.584;2022-12-29T02:46:10;11.50;99.90
22974;DHT22;11653;50.848;4.584;2022-12-29T02:48:45;11.60;99.90
22974;DHT22;11653;50.848;4.584;2022-12-29T02:51:25;11.60;99.90
22974;DHT22;11653;50.848;4.584;2022-12-29T02:53:53;11.60;99.90
22974;DHT22;11653;50.848;4.584;2022-12-29T02:56:38;11.60;99.90
22974;DHT22;11653;50.848;4.584;2022-12-29T02:59:04;11.50;99.90
22974;DHT22;11653;50.848;4.584;2022-12-29T03:04:39;11.20;99.90
22974;DHT22;11653;50.848;4.584;2022-12-29T03:07:25;11.00;99.90
22974;DHT22;11653;50.848;4.584;2022-12-29T03:10:19;11.00;99.90
22974;DHT22;11653;50.848;4.584;2022-12-29T03:12:55;10.90;99.90
22974;DHT22;11653;50.848;4.584;2022-12-29T03:15:57;10.80;99.90
22974;DHT22;11653;50.848;4.584;2022-12-29T03:18:40;10.90;99.90
22974;DHT22;11653;50.848;4.584;2022-12-29T03:21:17;10.80;99.90
22974;DHT22;11653;50.848;4.584;2022-12-29T03:23:45;10.60;99.90
22974;DHT22;11653;50.848;4.584;2022-12-29T03:26:14;10.60;99.90
22974;DHT22;11653;50.848;4.584;2022-12-29T03:28:54;10.60;99.90
22974;DHT22;11653;50.848;4.584;2022-12-29T03:31:23;10.60;99.90
22974;DHT22;11653;50.848;4.584;2022-12-29T03:33:50;10.60;99.90
22974;DHT22;11653;50.848;4.584;2022-12-29T03:36:23;10.60;99.90
22974;DHT22;11653;50.848;4.584;2022-12-29T03:39:09;10.70;99.90
22974;DHT22;11653;50.848;4.584;2022-12-29T03:41:38;10.80;99.90
22974;DHT22;11653;50.848;4.584;2022-12-29T03:44:06;10.90;99.90
22974;DHT22;11653;50.848;4.584;2022-12-29T03:46:32;11.00;99.90
22974;DHT22;11653;50.848;4.584;2022-12-29T03:48:58;11.00;99.90
22974;DHT22;11653;50.848;4.584;2022-12-29T03:51:23;11.10;99.90
22974;DHT22;11653;50.848;4.584;2022-12-29T03:53:49;11.10;99.90
22974;DHT22;11653;50.848;4.584;2022-12-29T03:56:15;11.20;99.90
22974;DHT22;11653;50.848;4.584;2022-12-29T03:58:40;11.30;99.90
22974;DHT22;11653;50.848;4.584;2022-12-29T04:01:06;11.30;99.90
22974;DHT22;11653;50.848;4.584;2022-12-29T04:03:32;11.30;99.90
22974;DHT22;11653;50.848;4.584;2022-12-29T04:05:57;11.30;99.90
22974;DHT22;11653;50.848;4.584;2022-12-29T04:08:23;11.30;99.90
22974;DHT22;11653;50.848;4.584;2022-12-29T04:10:49;11.30;99.90
22974;DHT22;11653;50.848;4.584;2022-12-29T04:13:15;11.20;99.90
22974;DHT22;11653;50.848;4.584;2022-12-29T04:15:42;11.20;99.90
22974;DHT22;11653;50.848;4.584;2022-12-29T04:18:08;11.20;99.90
22974;DHT22;11653;50.848;4.584;2022-12-29T04:20:34;11.20;99.90
22974;DHT22;11653;50.848;4.584;2022-12-29T04:23:18;11.20;99.90
22974;DHT22;11653;50.848;4.584;2022-12-29T04:25:47;11.20;99.90
22974;DHT22;11653;50.848;4.584;2022-12-29T04:28:14;11.20;99.90
22974;DHT22;11653;50.848;4.584;2022-12-29T04:30:40;11.30;99.90
22974;DHT22;11653;50.848;4.584;2022-12-29T04:33:06;11.30;99.90
22974;DHT22;11653;50.848;4.584;2022-12-29T04:35:32;11.40;99.90
22974;DHT22;11653;50.848;4.584;2022-12-29T04:37:57;11.30;99.90
22974;DHT22;11653;50.848;4.584;2022-12-29T04:40:23;11.30;99.90
22974;DHT22;11653;50.848;4.584;2022-12-29T04:42:50;11.30;99.90
22974;DHT22;11653;50.848;4.584;2022-12-29T04:45:16;11.30;99.90
22974;DHT22;11653;50.848;4.584;2022-12-29T04:47:41;11.30;99.90
22974;DHT22;11653;50.848;4.584;2022-12-29T04:50:07;11.40;99.90
22974;DHT22;11653;50.848;4.584;2022-12-29T04:52:33;11.40;99.90
22974;DHT22;11653;50.848;4.584;2022-12-29T04:54:59;11.40;99.90
22974;DHT22;11653;50.848;4.584;2022-12-29T04:57:25;11.50;99.90
22974;DHT22;11653;50.848;4.584;2022-12-29T04:59:51;11.50;99.90
22974;DHT22;11653;50.848;4.584;2022-12-29T05:02:17;11.50;99.90
22974;DHT22;11653;50.848;4.584;2022-12-29T05:04:43;11.60;99.90
22974;DHT22;11653;50.848;4.584;2022-12-29T05:07:09;11.70;99.90
22974;DHT22;11653;50.848;4.584;2022-12-29T05:09:35;11.70;99.90
22974;DHT22;11653;50.848;4.584;2022-12-29T05:12:00;11.70;99.90
22974;DHT22;11653;50.848;4.584;2022-12-29T05:14:26;11.80;99.90
22974;DHT22;11653;50.848;4.584;2022-12-29T05:16:52;11.80;99.90
22974;DHT22;11653;50.848;4.584;2022-12-29T05:19:18;11.80;99.90
22974;DHT22;11653;50.848;4.584;2022-12-29T05:21:43;11.90;99.90
22974;DHT22;11653;50.848;4.584;2022-12-29T05:24:09;11.90;99.90
22974;DHT22;11653;50.848;4.584;2022-12-29T05:26:35;11.80;99.90
22974;DHT22;11653;50.848;4.584;2022-12-29T05:29:01;11.80;99.90
22974;DHT22;11653;50.848;4.584;2022-12-29T05:31:27;11.80;99.90
22974;DHT22;11653;50.848;4.584;2022-12-29T05:33:53;11.70;99.90
22974;DHT22;11653;50.848;4.584;2022-12-29T05:36:19;11.70;99.90
22974;DHT22;11653;50.848;4.584;2022-12-29T05:38:45;11.70;99.90
22974;DHT22;11653;50.848;4.584;2022-12-29T05:41:10;11.70;99.90
22974;DHT22;11653;50.848;4.584;2022-12-29T05:43:36;11.80;99.90
22974;DHT22;11653;50.848;4.584;2022-12-29T05:46:02;11.80;99.90
22974;DHT22;11653;50.848;4.584;2022-12-29T05:48:28;11.80;99.90
22974;DHT22;11653;50.848;4.584;2022-12-29T05:50:54;11.80;99.90
22974;DHT22;11653;50.848;4.584;2022-12-29T05:53:20;11.80;99.90
22974;DHT22;11653;50.848;4.584;2022-12-29T05:55:49;11.80;99.90
22974;DHT22;11653;50.848;4.584;2022-12-29T05:58:16;11.70;99.90
22974;DHT22;11653;50.848;4.584;2022-12-29T06:00:42;11.80;99.90
22974;DHT22;11653;50.848;4.584;2022-12-29T06:03:08;11.80;99.90
22974;DHT22;11653;50.848;4.584;2022-12-29T06:05:33;11.80;99.90
22974;DHT22;11653;50.848;4.584;2022-12-29T06:07:59;11.70;99.90
22974;DHT22;11653;50.848;4.584;2022-12-29T06:10:25;11.70;99.90
22974;DHT22;11653;50.848;4.584;2022-12-29T06:12:50;11.70;99.90
22974;DHT22;11653;50.848;4.584;2022-12-29T06:15:16;11.70;99.90
22974;DHT22;11653;50.848;4.584;2022-12-29T06:17:42;11.70;99.90
22974;DHT22;11653;50.848;4.584;2022-12-29T06:20:09;11.70;99.90
22974;DHT22;11653;50.848;4.584;2022-12-29T06:22:35;11.60;99.90
22974;DHT22;11653;50.848;4.584;2022-12-29T06:25:02;11.70;99.90
22974;DHT22;11653;50.848;4.584;2022-12-29T06:27:28;11.70;99.90
22974;DHT22;11653;50.848;4.584;2022-12-29T06:29:54;11.70;99.90
22974;DHT22;11653;50.848;4.584;2022-12-29T06:32:20;11.60;99.90
22974;DHT22;11653;50.848;4.584;2022-12-29T06:34:46;11.60;99.90
22974;DHT22;11653;50.848;4.584;2022-12-29T06:37:12;11.50;99.90
22974;DHT22;11653;50.848;4.584;2022-12-29T06:39:38;11.60;99.90
22974;DHT22;11653;50.848;4.584;2022-12-29T06:42:04;11.60;99.90
22974;DHT22;11653;50.848;4.584;2022-12-29T06:44:29;11.60;99.90
22974;DHT22;11653;50.848;4.584;2022-12-29T06:46:55;11.60;99.90
22974;DHT22;11653;50.848;4.584;2022-12-29T06:49:22;11.60;99.90
22974;DHT22;11653;50.848;4.584;2022-12-29T06:51:48;11.70;99.90
22974;DHT22;11653;50.848;4.584;2022-12-29T06:54:14;11.70;99.90
22974;DHT22;11653;50.848;4.584;2022-12-29T06:56:40;11.70;99.90
22974;DHT22;11653;50.848;4.584;2022-12-29T06:59:05;11.70;99.90
22974;DHT22;11653;50.848;4.584;2022-12-29T07:01:31;11.80;99.90
22974;DHT22;11653;50.848;4.584;2022-12-29T07:03:57;11.80;99.90
22974;DHT22;11653;50.848;4.584;2022-12-29T07:06:23;11.70;99.90
22974;DHT22;11653;50.848;4.584;2022-12-29T07:08:48;11.70;99.90
22974;DHT22;11653;50.848;4.584;2022-12-29T07:11:14;11.70;99.90
22974;DHT22;11653;50.848;4.584;2022-12-29T07:13:40;11.80;99.90
22974;DHT22;11653;50.848;4.584;2022-12-29T07:16:09;11.80;99.90
22974;DHT22;11653;50.848;4.584;2022-12-29T07:18:35;11.80;99.90
22974;DHT22;11653;50.848;4.584;2022-12-29T07:21:01;11.90;99.90
22974;DHT22;11653;50.848;4.584;2022-12-29T07:23:27;11.80;99.90
22974;DHT22;11653;50.848;4.584;2022-12-29T07:26:04;11.80;99.90
22974;DHT22;11653;50.848;4.584;2022-12-29T07:28:30;11.80;99.90
22974;DHT22;11653;50.848;4.584;2022-12-29T07:30:58;11.70;99.90
22974;DHT22;11653;50.848;4.584;2022-12-29T07:33:23;11.70;99.90
22974;DHT22;11653;50.848;4.584;2022-12-29T07:35:49;11.70;99.90
22974;DHT22;11653;50.848;4.584;2022-12-29T07:38:15;11.80;99.90
22974;DHT22;11653;50.848;4.584;2022-12-29T07:40:42;11.80;99.90
22974;DHT22;11653;50.848;4.584;2022-12-29T07:43:08;11.80;99.90
22974;DHT22;11653;50.848;4.584;2022-12-29T07:45:33;11.80;99.90
22974;DHT22;11653;50.848;4.584;2022-12-29T07:47:59;11.80;99.90
22974;DHT22;11653;50.848;4.584;2022-12-29T07:50:25;11.80;99.90
22974;DHT22;11653;50.848;4.584;2022-12-29T07:52:50;11.80;99.90
22974;DHT22;11653;50.848;4.584;2022-12-29T07:55:16;11.80;99.90
22974;DHT22;11653;50.848;4.584;2022-12-29T07:57:42;11.80;99.90
22974;DHT22;11653;50.848;4.584;2022-12-29T08:00:08;11.80;99.90
22974;DHT22;11653;50.848;4.584;2022-12-29T08:02:35;11.80;99.90
22974;DHT22;11653;50.848;4.584;2022-12-29T08:05:01;11.70;99.90
22974;DHT22;11653;50.848;4.584;2022-12-29T08:07:27;11.70;99.90
22974;DHT22;11653;50.848;4.584;2022-12-29T08:09:52;11.80;99.90
22974;DHT22;11653;50.848;4.584;2022-12-29T08:12:18;11.80;99.90
22974;DHT22;11653;50.848;4.584;2022-12-29T08:14:44;11.80;99.90
22974;DHT22;11653;50.848;4.584;2022-12-29T08:17:09;11.70;99.90
22974;DHT22;11653;50.848;4.584;2022-12-29T08:19:36;11.80;99.90
22974;DHT22;11653;50.848;4.584;2022-12-29T08:22:02;11.70;99.90
22974;DHT22;11653;50.848;4.584;2022-12-29T08:24:27;11.60;99.90
22974;DHT22;11653;50.848;4.584;2022-12-29T08:26:54;11.70;99.90
22974;DHT22;11653;50.848;4.584;2022-12-29T08:29:20;11.70;99.90
22974;DHT22;11653;50.848;4.584;2022-12-29T08:31:47;11.70;99.90
22974;DHT22;11653;50.848;4.584;2022-12-29T08:34:13;11.80;99.90
22974;DHT22;11653;50.848;4.584;2022-12-29T08:36:39;11.80;99.90
22974;DHT22;11653;50.848;4.584;2022-12-29T08:39:05;11.80;99.90
22974;DHT22;11653;50.848;4.584;2022-12-29T08:41:30;11.80;99.90
22974;DHT22;11653;50.848;4.584;2022-12-29T08:43:56;11.70;99.90
22974;DHT22;11653;50.848;4.584;2022-12-29T08:46:22;11.70;99.90
22974;DHT22;11653;50.848;4.584;2022-12-29T08:48:47;11.70;99.90
22974;DHT22;11653;50.848;4.584;2022-12-29T08:51:13;11.60;99.90
22974;DHT22;11653;50.848;4.584;2022-12-29T08:53:40;11.70;99.90
22974;DHT22;11653;50.848;4.584;2022-12-29T08:56:06;11.70;99.90
22974;DHT22;11653;50.848;4.584;2022-12-29T08:58:33;11.70;99.90
22974;DHT22;11653;50.848;4.584;2022-12-29T09:00:59;11.70;99.90
22974;DHT22;11653;50.848;4.584;2022-12-29T09:03:25;11.70;99.90
22974;DHT22;11653;50.848;4.584;2022-12-29T09:05:53;11.70;99.90
22974;DHT22;11653;50.848;4.584;2022-12-29T09:08:19;11.70;99.90
22974;DHT22;11653;50.848;4.584;2022-12-29T09:10:45;11.70;99.90
22974;DHT22;11653;50.848;4.584;2022-12-29T09:13:13;11.70;99.90
22974;DHT22;11653;50.848;4.584;2022-12-29T09:15:39;11.70;99.90
22974;DHT22;11653;50.848;4.584;2022-12-29T09:18:05;11.70;99.90
22974;DHT22;11653;50.848;4.584;2022-12-29T09:20:32;11.70;99.90
22974;DHT22;11653;50.848;4.584;2022-12-29T09:22:58;11.70;99.90
22974;DHT22;11653;50.848;4.584;2022-12-29T09:25:24;11.80;99.90
22974;DHT22;11653;50.848;4.584;2022-12-29T09:27:50;11.90;99.90
22974;DHT22;11653;50.848;4.584;2022-12-29T09:30:19;11.90;99.90
22974;DHT22;11653;50.848;4.584;2022-12-29T09:32:45;11.90;99.90
22974;DHT22;11653;50.848;4.584;2022-12-29T09:35:11;12.00;99.90
22974;DHT22;11653;50.848;4.584;2022-12-29T09:37:37;12.10;99.90
22974;DHT22;11653;50.848;4.584;2022-12-29T09:40:04;12.10;99.90
22974;DHT22;11653;50.848;4.584;2022-12-29T09:43:37;12.00;99.90
22974;DHT22;11653;50.848;4.584;2022-12-29T09:45:55;11.80;99.90
22974;DHT22;11653;50.848;4.584;2022-12-29T09:48:29;11.90;99.90
22974;DHT22;11653;50.848;4.584;2022-12-29T09:51:00;12.10;99.90
22974;DHT22;11653;50.848;4.584;2022-12-29T09:53:39;12.00;99.90
22974;DHT22;11653;50.848;4.584;2022-12-29T09:56:15;12.10;99.90
22974;DHT22;11653;50.848;4.584;2022-12-29T09:59:04;12.00;99.90
22974;DHT22;11653;50.848;4.584;2022-12-29T10:04:13;12.20;99.90
22974;DHT22;11653;50.848;4.584;2022-12-29T10:25:37;12.10;99.90
22974;DHT22;11653;50.848;4.584;2022-12-29T10:28:22;12.20;99.90
22974;DHT22;11653;50.848;4.584;2022-12-29T10:30:49;12.10;99.90
22974;DHT22;11653;50.848;4.584;2022-12-29T10:33:19;12.10;99.90
22974;DHT22;11653;50.848;4.584;2022-12-29T10:35:47;12.10;99.90
22974;DHT22;11653;50.848;4.584;2022-12-29T10:38:29;12.00;99.90
22974;DHT22;11653;50.848;4.584;2022-12-29T10:43:30;12.00;99.90
22974;DHT22;11653;50.848;4.584;2022-12-29T10:46:06;12.10;99.90
22974;DHT22;11653;50.848;4.584;2022-12-29T10:48:35;12.10;99.90
22974;DHT22;11653;50.848;4.584;2022-12-29T10:51:07;12.20;99.90
22974;DHT22;11653;50.848;4.584;2022-12-29T10:53:50;12.20;99.90
22974;DHT22;11653;50.848;4.584;2022-12-29T10:56:42;12.10;99.90
22974;DHT22;11653;50.848;4.584;2022-12-29T10:59:23;12.00;99.90
22974;DHT22;11653;50.848;4.584;2022-12-29T11:07:08;12.00;99.90
22974;DHT22;11653;50.848;4.584;2022-12-29T11:09:36;12.00;99.90
22974;DHT22;11653;50.848;4.584;2022-12-29T11:17:26;12.10;99.90
22974;DHT22;11653;50.848;4.584;2022-12-29T11:19:52;12.10;99.90
22974;DHT22;11653;50.848;4.584;2022-12-29T11:22:29;12.10;99.90
22974;DHT22;11653;50.848;4.584;2022-12-29T11:25:06;12.10;99.90
22974;DHT22;11653;50.848;4.584;2022-12-29T11:27:32;12.10;99.90
22974;DHT22;11653;50.848;4.584;2022-12-29T11:29:58;12.20;99.90
22974;DHT22;11653;50.848;4.584;2022-12-29T11:32:26;12.30;99.90
22974;DHT22;11653;50.848;4.584;2022-12-29T11:34:51;12.40;99.90
22974;DHT22;11653;50.848;4.584;2022-12-29T11:42:51;12.60;99.90
22974;DHT22;11653;50.848;4.584;2022-12-29T11:45:25;12.60;99.90
22974;DHT22;11653;50.848;4.584;2022-12-29T11:48:06;12.30;99.90
22974;DHT22;11653;50.848;4.584;2022-12-29T11:50:35;12.20;99.90
22974;DHT22;11653;50.848;4.584;2022-12-29T11:53:42;12.20;99.90
22974;DHT22;11653;50.848;4.584;2022-12-29T11:56:12;12.00;99.90
22974;DHT22;11653;50.848;4.584;2022-12-29T11:58:38;11.90;99.90
22974;DHT22;11653;50.848;4.584;2022-12-29T12:04:03;12.10;99.90
22974;DHT22;11653;50.848;4.584;2022-12-29T12:06:35;12.10;99.90
22974;DHT22;11653;50.848;4.584;2022-12-29T12:09:10;12.00;99.90
22974;DHT22;11653;50.848;4.584;2022-12-29T12:11:40;12.00;99.90
22974;DHT22;11653;50.848;4.584;2022-12-29T12:14:12;12.00;99.90
22974;DHT22;11653;50.848;4.584;2022-12-29T12:16:44;11.90;99.90
22974;DHT22;11653;50.848;4.584;2022-12-29T12:19:24;12.00;99.90
22974;DHT22;11653;50.848;4.584;2022-12-29T12:22:01;11.90;99.90
22974;DHT22;11653;50.848;4.584;2022-12-29T12:29:59;11.80;99.90
22974;DHT22;11653;50.848;4.584;2022-12-29T12:34:54;11.70;99.90
22974;DHT22;11653;50.848;4.584;2022-12-29T12:56:12;11.80;99.90
22974;DHT22;11653;50.848;4.584;2022-12-29T12:58:51;11.80;99.90
22974;DHT22;11653;50.848;4.584;2022-12-29T13:04:18;11.80;99.90
22974;DHT22;11653;50.848;4.584;2022-12-29T13:07:17;11.80;99.90
22974;DHT22;11653;50.848;4.584;2022-12-29T13:12:46;12.00;99.90
22974;DHT22;11653;50.848;4.584;2022-12-29T13:15:23;12.10;99.90
22974;DHT22;11653;50.848;4.584;2022-12-29T13:18:27;12.20;99.90
22974;DHT22;11653;50.848;4.584;2022-12-29T13:21:05;12.10;99.90
22974;DHT22;11653;50.848;4.584;2022-12-29T13:23:54;12.00;99.90
22974;DHT22;11653;50.848;4.584;2022-12-29T13:26:32;12.00;99.90
22974;DHT22;11653;50.848;4.584;2022-12-29T13:29:06;11.90;99.90
22974;DHT22;11653;50.848;4.584;2022-12-29T13:37:03;11.60;99.90
22974;DHT22;11653;50.848;4.584;2022-12-29T13:39:33;11.40;99.90
22974;DHT22;11653;50.848;4.584;2022-12-29T13:42:02;11.40;99.90
22974;DHT22;11653;50.848;4.584;2022-12-29T13:44:33;11.40;99.90
22974;DHT22;11653;50.848;4.584;2022-12-29T13:47:04;11.40;99.90
22974;DHT22;11653;50.848;4.584;2022-12-29T13:49:30;11.40;99.90
22974;DHT22;11653;50.848;4.584;2022-12-29T13:52:09;11.30;99.90
22974;DHT22;11653;50.848;4.584;2022-12-29T13:54:59;11.30;99.90
22974;DHT22;11653;50.848;4.584;2022-12-29T13:57:41;11.30;99.90
22974;DHT22;11653;50.848;4.584;2022-12-29T14:00:15;11.40;99.90
22974;DHT22;11653;50.848;4.584;2022-12-29T14:08:14;11.40;99.90
22974;DHT22;11653;50.848;4.584;2022-12-29T14:10:50;11.40;99.90
22974;DHT22;11653;50.848;4.584;2022-12-29T14:13:22;11.40;99.90
22974;DHT22;11653;50.848;4.584;2022-12-29T14:15:56;11.50;99.90
22974;DHT22;11653;50.848;4.584;2022-12-29T14:18:31;11.40;99.90
22974;DHT22;11653;50.848;4.584;2022-12-29T14:21:01;11.40;99.90
22974;DHT22;11653;50.848;4.584;2022-12-29T14:23:41;11.50;99.90
22974;DHT22;11653;50.848;4.584;2022-12-29T14:28:42;11.50;99.90
22974;DHT22;11653;50.848;4.584;2022-12-29T14:33:40;11.60;99.90
22974;DHT22;11653;50.848;4.584;2022-12-29T14:36:29;11.60;99.90
22974;DHT22;11653;50.848;4.584;2022-12-29T14:38:58;11.60;99.90
22974;DHT22;11653;50.848;4.584;2022-12-29T14:41:29;11.70;99.90
22974;DHT22;11653;50.848;4.584;2022-12-29T14:49:22;11.60;99.90
22974;DHT22;11653;50.848;4.584;2022-12-29T14:51:52;11.60;99.90
22974;DHT22;11653;50.848;4.584;2022-12-29T14:54:43;11.50;99.90
22974;DHT22;11653;50.848;4.584;2022-12-29T14:57:30;11.50;99.90
22974;DHT22;11653;50.848;4.584;2022-12-29T15:00:26;11.40;99.90
22974;DHT22;11653;50.848;4.584;2022-12-29T15:03:06;11.30;99.90
22974;DHT22;11653;50.848;4.584;2022-12-29T15:05:43;11.40;99.90
22974;DHT22;11653;50.848;4.584;2022-12-29T15:08:10;11.40;99.90
22974;DHT22;11653;50.848;4.584;2022-12-29T15:10:45;11.40;99.90
22974;DHT22;11653;50.848;4.584;2022-12-29T15:13:21;11.30;99.90
22974;DHT22;11653;50.848;4.584;2022-12-29T15:15:47;11.00;99.90
22974;DHT22;11653;50.848;4.584;2022-12-29T15:20:55;10.90;99.90
22974;DHT22;11653;50.848;4.584;2022-12-29T15:23:23;10.60;99.90
22974;DHT22;11653;50.848;4.584;2022-12-29T15:25:55;10.30;99.90
22974;DHT22;11653;50.848;4.584;2022-12-29T15:28:21;10.00;99.90
22974;DHT22;11653;50.848;4.584;2022-12-29T15:31:14;9.70;99.90
22974;DHT22;11653;50.848;4.584;2022-12-29T15:33:42;9.40;99.90
22974;DHT22;11653;50.848;4.584;2022-12-29T15:36:14;9.30;99.90
22974;DHT22;11653;50.848;4.584;2022-12-29T15:38:43;9.20;99.90
22974;DHT22;11653;50.848;4.584;2022-12-29T15:46:55;9.30;99.90
22974;DHT22;11653;50.848;4.584;2022-12-29T15:49:21;9.30;99.90
22974;DHT22;11653;50.848;4.584;2022-12-29T15:51:49;9.10;99.90
22974;DHT22;11653;50.848;4.584;2022-12-29T15:54:20;9.10;99.90
22974;DHT22;11653;50.848;4.584;2022-12-29T15:56:47;9.10;99.90
22974;DHT22;11653;50.848;4.584;2022-12-29T15:59:34;9.10;99.90
22974;DHT22;11653;50.848;4.584;2022-12-29T16:02:01;9.10;99.90
22974;DHT22;11653;50.848;4.584;2022-12-29T16:04:30;9.10;99.90
22974;DHT22;11653;50.848;4.584;2022-12-29T16:07:03;9.30;99.90
22974;DHT22;11653;50.848;4.584;2022-12-29T16:09:33;9.30;99.90
22974;DHT22;11653;50.848;4.584;2022-12-29T16:12:17;9.30;99.90
22974;DHT22;11653;50.848;4.584;2022-12-29T16:14:56;9.40;99.90
22974;DHT22;11653;50.848;4.584;2022-12-29T16:17:26;9.40;99.90
22974;DHT22;11653;50.848;4.584;2022-12-29T16:19:54;9.30;99.90
22974;DHT22;11653;50.848;4.584;2022-12-29T16:22:36;9.30;99.90
22974;DHT22;11653;50.848;4.584;2022-12-29T16:27:41;9.20;99.90
22974;DHT22;11653;50.848;4.584;2022-12-29T16:30:19;9.20;99.90
22974;DHT22;11653;50.848;4.584;2022-12-29T16:32:48;9.30;99.90
22974;DHT22;11653;50.848;4.584;2022-12-29T16:38:21;9.30;99.90
22974;DHT22;11653;50.848;4.584;2022-12-29T16:40:57;9.40;99.90
22974;DHT22;11653;50.848;4.584;2022-12-29T16:43:26;9.40;99.90
22974;DHT22;11653;50.848;4.584;2022-12-29T16:48:20;9.30;99.90
22974;DHT22;11653;50.848;4.584;2022-12-29T16:50:47;9.30;99.90
22974;DHT22;11653;50.848;4.584;2022-12-29T16:55:52;9.50;99.90
22974;DHT22;11653;50.848;4.584;2022-12-29T16:58:22;9.50;99.90
22974;DHT22;11653;50.848;4.584;2022-12-29T17:00:49;9.40;99.90
22974;DHT22;11653;50.848;4.584;2022-12-29T17:03:17;9.50;99.90
22974;DHT22;11653;50.848;4.584;2022-12-29T17:05:43;9.50;99.90
22974;DHT22;11653;50.848;4.584;2022-12-29T17:08:18;9.50;99.90
22974;DHT22;11653;50.848;4.584;2022-12-29T17:10:56;9.50;99.90
22974;DHT22;11653;50.848;4.584;2022-12-29T17:13:41;9.40;99.90
22974;DHT22;11653;50.848;4.584;2022-12-29T17:16:09;9.40;99.90
22974;DHT22;11653;50.848;4.584;2022-12-29T17:18:35;9.50;99.90
22974;DHT22;11653;50.848;4.584;2022-12-29T17:21:01;9.40;99.90
22974;DHT22;11653;50.848;4.584;2022-12-29T17:23:28;9.30;99.90
22974;DHT22;11653;50.848;4.584;2022-12-29T17:25:55;9.30;99.90
22974;DHT22;11653;50.848;4.584;2022-12-29T17:28:25;9.30;99.90
22974;DHT22;11653;50.848;4.584;2022-12-29T17:30:58;9.30;99.90
22974;DHT22;11653;50.848;4.584;2022-12-29T17:33:25;9.30;99.90
22974;DHT22;11653;50.848;4.584;2022-12-29T17:35:50;9.30;99.90
22974;DHT22;11653;50.848;4.584;2022-12-29T17:38:21;9.30;99.90
22974;DHT22;11653;50.848;4.584;2022-12-29T17:40:48;9.30;99.90
22974;DHT22;11653;50.848;4.584;2022-12-29T17:43:15;9.20;99.90
22974;DHT22;11653;50.848;4.584;2022-12-29T17:45:41;9.20;99.90
22974;DHT22;11653;50.848;4.584;2022-12-29T17:48:16;9.20;99.90
22974;DHT22;11653;50.848;4.584;2022-12-29T17:50:42;9.20;99.90
22974;DHT22;11653;50.848;4.584;2022-12-29T17:53:25;9.30;99.90
22974;DHT22;11653;50.848;4.584;2022-12-29T17:55:52;9.30;99.90
22974;DHT22;11653;50.848;4.584;2022-12-29T17:58:23;9.30;99.90
22974;DHT22;11653;50.848;4.584;2022-12-29T18:00:52;9.30;99.90
22974;DHT22;11653;50.848;4.584;2022-12-29T18:03:27;9.30;99.90
22974;DHT22;11653;50.848;4.584;2022-12-29T18:05:53;9.40;99.90
22974;DHT22;11653;50.848;4.584;2022-12-29T18:08:19;9.40;99.90
22974;DHT22;11653;50.848;4.584;2022-12-29T18:10:45;9.50;99.90